Island Explorer 3 — WDD5656 — position and weather

sailwx.info

Track history (hours):
 
Tides and Currents Weather Stations Pressure Air Temp Water Temp Dewpoint Dewpoint Depression Visibility Wind Speed Wind Dir Waves Ship Positions

Island Explorer 3

Owner: Island Adventures, Inc., Anacortes, WA. More information available from US FCC via Universal Licensing System and Coast Guard Vessel Documentation Center.

Last reported at 2018-Apr-22 00:09 UTC. Time now 2018-Apr-22 08:20 UTC.
Position N 47°60' W 122°13'.

Length 24 m.

Type: Passenger vessel. MMSI: 367161570.

Date/timePositionNaut miles runAvg speedWind from/ knotsBaromVisibWave heightAir tempDewpointWater temp
2018-Apr-22 00:09N 47°60' W 122°13'2 0.7
2018-Apr-21 21:30N 47°60' W 122°16'2 1.2
2018-Apr-21 20:02N 47°60' W 122°13'0 3.7
2018-Apr-21 19:59N 47°60' W 122°14'2 2.9
2018-Apr-21 19:21N 47°60' W 122°16'1 0.5
2018-Apr-21 17:44N 48°01' W 122°16'1 2.6
2018-Apr-21 17:26N 47°60' W 122°16'2 0.1
2018-Apr-21 00:18N 47°60' W 122°13'3 1.4
2018-Apr-20 22:13N 47°60' W 122°18'0 1.1
2018-Apr-20 21:53N 47°60' W 122°18'1 2.5
2018-Apr-20 21:29N 47°59' W 122°17'3 2.1
2018-Apr-20 20:13N 47°60' W 122°13'3 1.6
2018-Apr-20 18:39N 47°60' W 122°17'0 0.3
2018-Apr-20 18:28N 47°60' W 122°17'1 1.9
2018-Apr-20 18:00N 47°59' W 122°18'1 1.4
2018-Apr-20 17:30N 47°58' W 122°17'3 0.1
2018-Apr-19 20:26N 47°59' W 122°14'1010.9
2018-Apr-19 19:31N 48°05' W 122°26'0 1.7
2018-Apr-19 19:15N 48°05' W 122°26'714.5
2018-Apr-19 18:48N 48°00' W 122°19'1 2.2
2018-Apr-19 18:27N 47°60' W 122°18'0 0.8
2018-Apr-19 17:58N 47°59' W 122°18'1 2.4
2018-Apr-19 17:31N 47°58' W 122°17'3 0.2
2018-Apr-18 23:58N 47°60' W 122°13'2 0.8
2018-Apr-18 21:25N 48°00' W 122°16'2 1.4
2018-Apr-18 20:00N 47°60' W 122°13'2 0.8
2018-Apr-18 17:21N 48°00' W 122°16'2 0.1
2018-Apr-17 20:07N 47°60' W 122°13'1 4.7
2018-Apr-17 19:59N 47°59' W 122°14'2 0.7
2018-Apr-17 17:33N 47°60' W 122°16'115.4
2018-Apr-17 17:30N 47°59' W 122°15'1 0.1
2018-Apr-16 19:54N 47°60' W 122°13'2 5.4
2018-Apr-16 19:28N 47°60' W 122°17'2 0.8
2018-Apr-16 17:21N 47°60' W 122°20'6 0.3
2018-Apr-15 22:33N 48°05' W 122°25'0 0.6
2018-Apr-15 22:28N 48°05' W 122°25'7 7.5
2018-Apr-15 21:32N 47°59' W 122°19'115.1
2018-Apr-15 21:29N 47°59' W 122°18'3 2.1
2018-Apr-15 20:05N 47°60' W 122°13'0 6.2
2018-Apr-15 20:00N 47°59' W 122°14'3 1.2
2018-Apr-15 17:48N 47°60' W 122°17'1 2.4
2018-Apr-15 17:31N 47°59' W 122°17'2 0.1
2018-Apr-14 20:11N 47°60' W 122°13'1 7.1
2018-Apr-14 20:00N 47°59' W 122°15'2 1.1
2018-Apr-14 18:11N 47°60' W 122°18'0 0.5
2018-Apr-14 17:39N 47°60' W 122°18'1 7.9
2018-Apr-14 17:30N 47°60' W 122°17'2 0.1
2018-Apr-13 23:50N 47°60' W 122°14'1 2.3
2018-Apr-13 23:29N 47°59' W 122°14'2 1.1
2018-Apr-13 21:43N 48°00' W 122°16'0 1.6
2018-Apr-13 21:26N 47°60' W 122°17'2 1.6
2018-Apr-13 20:02N 47°60' W 122°13'0 3.2
2018-Apr-13 20:00N 47°60' W 122°13'2 1.2
2018-Apr-13 17:54N 47°60' W 122°17'0 0.3
2018-Apr-13 17:30N 47°60' W 122°17'2 0.1
2018-Apr-13 00:00N 47°60' W 122°14'4 1.6
2018-Apr-12 21:31N 47°59' W 122°19'115.2
2018-Apr-12 21:28N 47°60' W 122°18'3 2.3
2018-Apr-12 20:02N 47°60' W 122°13'0 4.9
2018-Apr-12 20:01N 47°59' W 122°14'4 3.9
2018-Apr-12 18:54N 47°59' W 122°20'2 4.2
2018-Apr-12 18:30N 47°57' W 122°20'3 5.3
2018-Apr-12 17:52N 47°60' W 122°17'0 0.8
2018-Apr-12 17:25N 48°00' W 122°17'  
Track history (hours):
 
Tides and Currents Weather Stations Pressure Air Temp Water Temp Dewpoint Dewpoint Depression Visibility Wind Speed Wind Dir Waves Ship Positions

Island Explorer 3

Owner: Island Adventures, Inc., Anacortes, WA. More information available from US FCC via Universal Licensing System and Coast Guard Vessel Documentation Center.

Last reported at 2018-Apr-22 00:09 UTC. Time now 2018-Apr-22 08:20 UTC.
Position N 47°60' W 122°13'.

Length 24 m.

Type: Passenger vessel. MMSI: 367161570.

Date/timePositionNaut miles runAvg speedWind from/ knotsBaromVisibWave heightAir tempDewpointWater temp
2018-Apr-22 00:09N 47°60' W 122°13'2 0.7
2018-Apr-21 21:30N 47°60' W 122°16'2 1.2
2018-Apr-21 20:02N 47°60' W 122°13'0 3.7
2018-Apr-21 19:59N 47°60' W 122°14'2 2.9
2018-Apr-21 19:21N 47°60' W 122°16'1 0.5
2018-Apr-21 17:44N 48°01' W 122°16'1 2.6
2018-Apr-21 17:26N 47°60' W 122°16'2 0.1
2018-Apr-21 00:18N 47°60' W 122°13'3 1.4
2018-Apr-20 22:13N 47°60' W 122°18'0 1.1
2018-Apr-20 21:53N 47°60' W 122°18'1 2.5
2018-Apr-20 21:29N 47°59' W 122°17'3 2.1
2018-Apr-20 20:13N 47°60' W 122°13'3 1.6
2018-Apr-20 18:39N 47°60' W 122°17'0 0.3
2018-Apr-20 18:28N 47°60' W 122°17'1 1.9
2018-Apr-20 18:00N 47°59' W 122°18'1 1.4
2018-Apr-20 17:30N 47°58' W 122°17'3 0.1
2018-Apr-19 20:26N 47°59' W 122°14'1010.9
2018-Apr-19 19:31N 48°05' W 122°26'0 1.7
2018-Apr-19 19:15N 48°05' W 122°26'714.5
2018-Apr-19 18:48N 48°00' W 122°19'1 2.2
2018-Apr-19 18:27N 47°60' W 122°18'0 0.8
2018-Apr-19 17:58N 47°59' W 122°18'1 2.4
2018-Apr-19 17:31N 47°58' W 122°17'3 0.2
2018-Apr-18 23:58N 47°60' W 122°13'2 0.8
2018-Apr-18 21:25N 48°00' W 122°16'2 1.4
2018-Apr-18 20:00N 47°60' W 122°13'2 0.8
2018-Apr-18 17:21N 48°00' W 122°16'2 0.1
2018-Apr-17 20:07N 47°60' W 122°13'1 4.7
2018-Apr-17 19:59N 47°59' W 122°14'2 0.7
2018-Apr-17 17:33N 47°60' W 122°16'115.4
2018-Apr-17 17:30N 47°59' W 122°15'1 0.1
2018-Apr-16 19:54N 47°60' W 122°13'2 5.4
2018-Apr-16 19:28N 47°60' W 122°17'2 0.8
2018-Apr-16 17:21N 47°60' W 122°20'6 0.3
2018-Apr-15 22:33N 48°05' W 122°25'0 0.6
2018-Apr-15 22:28N 48°05' W 122°25'7 7.5
2018-Apr-15 21:32N 47°59' W 122°19'115.1
2018-Apr-15 21:29N 47°59' W 122°18'3 2.1
2018-Apr-15 20:05N 47°60' W 122°13'0 6.2
2018-Apr-15 20:00N 47°59' W 122°14'3 1.2
2018-Apr-15 17:48N 47°60' W 122°17'1 2.4
2018-Apr-15 17:31N 47°59' W 122°17'2 0.1
2018-Apr-14 20:11N 47°60' W 122°13'1 7.1
2018-Apr-14 20:00N 47°59' W 122°15'2 1.1
2018-Apr-14 18:11N 47°60' W 122°18'0 0.5
2018-Apr-14 17:39N 47°60' W 122°18'1 7.9
2018-Apr-14 17:30N 47°60' W 122°17'2 0.1
2018-Apr-13 23:50N 47°60' W 122°14'1 2.3
2018-Apr-13 23:29N 47°59' W 122°14'2 1.1
2018-Apr-13 21:43N 48°00' W 122°16'0 1.6
2018-Apr-13 21:26N 47°60' W 122°17'2 1.6
2018-Apr-13 20:02N 47°60' W 122°13'0 3.2
2018-Apr-13 20:00N 47°60' W 122°13'2 1.2
2018-Apr-13 17:54N 47°60' W 122°17'0 0.3
2018-Apr-13 17:30N 47°60' W 122°17'2 0.1
2018-Apr-13 00:00N 47°60' W 122°14'4 1.6
2018-Apr-12 21:31N 47°59' W 122°19'115.2
2018-Apr-12 21:28N 47°60' W 122°18'3 2.3
2018-Apr-12 20:02N 47°60' W 122°13'0 4.9
2018-Apr-12 20:01N 47°59' W 122°14'4 3.9
2018-Apr-12 18:54N 47°59' W 122°20'2 4.2
2018-Apr-12 18:30N 47°57' W 122°20'3 5.3
2018-Apr-12 17:52N 47°60' W 122°17'0 0.8
2018-Apr-12 17:25N 48°00' W 122°17'  

Dump ship's entire track history